Latest Coastal Weather Observations for Geelong Racecourse

IDV60701

Issued at 7:11 am EDT Saturday 20 December 2014 (issued every 10 minutes, with the page automatically refreshed every 10 minutes)

About coastal observations | Map of coastal stations | Coastal observations for VIC | Marine services | Other Formats
Station Details ID: 087184 Name: GEELONG RACECOURSE Lat: -38.17 Lon: 144.38 Height: 12.9 m
Data from the previous 72 hours. | See also: Recent months at Geelong Racecourse
Date/Time
EDT
Temp

°C
Wind Pressure Rain
since 9am
mm
Weather Cloud Vis
km
Sea
Height
m
Swell
Dir
 
Speed
knots
Gust
knots
hPa Trend Height
m
Period
s
Dir
20/07:00am 11.1 WNW 4 6 1018.4 - 0.0 - - - - - - -
20/06:30am 10.0 WNW 3 5 1018.2 - 0.0 - - - - - - -
20/06:00am 9.8 WNW 4 6 1017.9 - 0.0 - - - - - - -
20/05:30am 9.7 WNW 3 5 1017.9 - 0.0 - - - - - - -
20/05:00am 9.8 WNW 3 4 1017.8 - 0.0 - - - - - - -
20/04:30am 10.4 WNW 3 4 1017.8 - 0.0 - - - - - - -
20/04:00am 10.6 WNW 3 4 1017.9 - 0.0 - - - - - - -
20/03:30am 11.2 WNW 3 4 1018.0 - 0.0 - - - - - - -
20/03:00am 11.0 WNW 3 4 1018.1 - 0.0 - - - - - - -
20/02:30am 11.2 WNW 3 5 1018.3 - 0.0 - - - - - - -
20/02:00am 11.4 NW 3 4 1018.6 - 0.0 - - - - - - -
20/01:30am 11.6 NW 3 4 1018.9 - 0.0 - - - - - - -
20/01:00am 12.2 W 3 3 1019.1 - 0.0 - - - - - - -
20/12:30am 12.6 W 4 7 1019.3 - 0.0 - - - - - - -
20/12:00am 12.7 W 4 5 1019.5 - 0.0 - - - - - - -
 
Date/Time
EDT
Temp

°C
Wind Pressure Rain
since 9am
mm
Weather Cloud Vis
km
Sea
Height
m
Swell
Dir
 
Speed
knots
Gust
knots
hPa Trend Height
m
Period
s
Dir
19/11:30pm 13.5 WSW 6 8 1019.8 - 0.0 - - - - - - -
19/11:00pm 13.7 WSW 6 10 1020.0 - 0.0 - - - - - - -
19/10:30pm 13.4 CALM 0 1 1020.1 - 0.0 - - - - - - -
19/10:00pm 13.7 SW 4 6 1019.8 - 0.0 - - - - - - -
19/09:30pm 14.1 SSW 6 8 1019.5 - 0.0 - - - - - - -
19/09:00pm 14.9 SSW 7 11 1019.4 - 0.0 - - - - - - -
19/08:30pm 15.5 S 8 13 1019.4 - 0.0 - - - - - - -
19/08:00pm 16.3 S 11 15 1019.2 - 0.0 - - - - - - -
19/07:30pm 17.0 S 10 15 1018.8 - 0.0 - - - - - - -
19/07:00pm 17.0 S 12 17 1018.5 - 0.0 - - - - - - -
19/06:30pm 17.8 S 13 18 1018.3 - 0.0 - - - - - - -
19/06:00pm 18.2 S 12 18 1018.0 - 0.0 - - - - - - -
19/05:30pm 18.3 S 12 21 1017.9 - 0.0 - - - - - - -
19/05:00pm 18.6 S 13 18 1017.9 - 0.0 - - - - - - -
19/04:30pm 18.8 S 12 16 1017.8 - 0.0 - - - - - - -
19/04:00pm 18.4 S 11 17 1017.8 - 0.0 - - - - - - -
19/03:30pm 18.8 S 12 18 1017.8 - 0.0 - - - - - - -
19/03:00pm 19.4 S 11 17 1017.8 - 0.0 - - - - - - -
19/02:30pm 19.1 S 10 15 1017.6 - 0.0 - - - - - - -
19/02:00pm 18.3 S 10 14 1017.7 - 0.0 - - - - - - -
19/01:30pm 18.8 SSW 7 13 1017.5 - 0.0 - - - - - - -
19/01:00pm 17.4 SSE 9 15 1017.8 - 0.0 - - - - - - -
19/12:30pm 18.9 S 8 17 1017.6 - 0.0 - - - - - - -
19/12:00pm 16.7 SSW 8 12 1017.8 - 0.0 - - - - - - -
19/11:30am 16.6 SW 7 11 1017.8 - 0.0 - - - - - - -
19/11:00am 15.7 WSW 8 13 1017.7 - 0.0 - - - - - - -
19/10:30am 16.0 SW 10 14 1017.6 - 0.0 - - - - - - -
19/10:00am 15.9 WSW 9 13 1017.4 - 0.0 - - - - - - -
19/09:30am 15.0 WSW 8 11 1017.4 - 0.0 - - - - - - -
19/09:00am 14.5 W 7 11 1017.2 - 2.6 - - - - - - -
19/08:30am 13.4 NW 6 7 1016.7 - 2.6 - - - - - - -
19/08:00am 13.0 W 7 9 1016.4 - 2.6 - - - - - - -
19/07:30am 12.2 WNW 5 8 1016.1 - 2.6 - - - - - - -
19/07:00am 11.6 W 6 9 1015.7 - 2.6 - - - - - - -
19/06:30am 10.7 W 4 7 1015.4 - 2.6 - - - - - - -
19/06:00am 9.8 WNW 3 5 1015.3 - 2.6 - - - - - - -
19/05:30am 10.1 W 4 6 1014.9 - 2.6 - - - - - - -
19/05:00am 10.3 W 6 8 1014.7 - 2.6 - - - - - - -
19/04:30am 10.0 WNW 3 5 1014.3 - 2.6 - - - - - - -
19/04:00am 10.4 WNW 4 6 1014.0 - 2.6 - - - - - - -
19/03:30am 10.6 WNW 4 6 1013.8 - 2.6 - - - - - - -
19/03:00am 10.7 W 4 7 1013.7 - 2.6 - - - - - - -
19/02:30am 10.6 WNW 3 5 1013.7 - 2.6 - - - - - - -
19/02:00am 11.3 WNW 4 6 1013.6 - 2.6 - - - - - - -
19/01:30am 11.3 WNW 4 5 1013.7 - 2.6 - - - - - - -
19/01:00am 11.7 WNW 3 4 1013.7 - 2.6 - - - - - - -
19/12:30am 12.2 W 4 6 1013.7 - 2.6 - - - - - - -
19/12:00am 12.5 W 5 8 1013.6 - 2.6 - - - - - - -
 
Date/Time
EDT
Temp

°C
Wind Pressure Rain
since 9am
mm
Weather Cloud Vis
km
Sea
Height
m
Swell
Dir
 
Speed
knots
Gust
knots
hPa Trend Height
m
Period
s
Dir
18/11:30pm 12.6 W 5 7 1013.4 - 2.6 - - - - - - -
18/11:00pm 12.6 W 5 7 1013.4 - 2.6 - - - - - - -
18/10:30pm 12.8 W 5 7 1013.3 - 2.6 - - - - - - -
18/10:00pm 13.5 W 4 6 1013.0 - 2.6 - - - - - - -
18/09:30pm 14.1 WSW 7 9 1012.5 - 2.6 - - - - - - -
18/09:00pm 14.7 WSW 6 9 1012.1 - 2.6 - - - - - - -
18/08:30pm 15.8 WSW 10 15 1011.7 - 2.6 - - - - - - -
18/08:00pm 16.8 SW 10 16 1011.3 - 2.6 - - - - - - -
18/07:30pm 16.7 WSW 11 16 1010.7 - 2.6 - - - - - - -
18/07:00pm 16.9 SSW 10 17 1010.2 - 2.6 - - - - - - -
18/06:30pm 16.7 WSW 8 11 1009.6 - 2.6 - - - - - - -
18/06:00pm 16.8 W 11 17 1009.1 - 2.6 - - - - - - -
18/05:30pm 16.6 WSW 10 17 1008.7 - 2.6 - - - - - - -
18/05:00pm 17.5 WNW 10 17 1008.6 - 2.6 - - - - - - -
18/04:30pm 15.5 WNW 8 13 1008.6 - 2.4 - - - - - - -
18/04:00pm 14.5 WNW 6 10 1008.3 - 2.4 - - - - - - -
18/03:30pm 13.7 W 8 13 1007.9 - 2.0 - - - - - - -
18/03:00pm 13.9 WSW 17 26 1007.7 - 0.2 Rain - - - - - -
18/02:34pm 15.7 W 21 36 1006.7 - 0.0 - - - - - - -
18/02:30pm 17.2 W 17 36 1006.3 - 0.0 - - - - - - -
18/02:28pm 20.9 W 15 30 1006.1 - 0.0 - - - - - - -
18/02:00pm 22.2 WNW 14 22 1005.5 - 0.0 - - - - - - -
18/01:30pm 22.9 W 12 19 1005.4 - 0.0 - - - - - - -
18/01:00pm 22.6 WNW 11 17 1005.5 - 0.0 - - - - - - -
18/12:30pm 22.5 W 12 19 1005.9 - 0.0 - - - - - - -
18/12:00pm 21.2 W 14 21 1006.0 - 0.0 - - - - - - -
18/11:30am 21.2 WNW 11 16 1006.0 - 0.0 - - - - - - -
18/11:00am 20.7 WNW 13 22 1006.1 - 0.0 - - - - - - -
18/10:30am 20.7 W 12 18 1006.0 - 0.0 - - - - - - -
18/10:00am 18.8 WNW 11 18 1006.0 - 0.0 - - - - - - -
18/09:30am 17.8 WNW 13 19 1006.1 - 0.0 - - - - - - -
18/09:00am 17.2 WNW 11 20 1006.1 - 0.0 - - - - - - -
18/08:30am 15.6 NW 6 10 1005.9 - 0.0 - - - - - - -
18/08:00am 14.1 NNW 5 7 1005.6 - 0.0 - - - - - - -
18/07:30am 12.3 NW 4 6 1005.5 - 0.0 - - - - - - -
18/07:00am 10.4 NW 6 8 1005.7 - 0.0 - - - - - - -
18/06:30am 8.4 WNW 5 7 1005.4 - 0.0 - - - - - - -
18/06:00am 8.8 NNW 3 5 1005.1 - 0.0 - - - - - - -
18/05:30am 8.8 NW 3 5 1005.3 - 0.0 - - - - - - -
18/05:00am 8.5 W 2 2 1005.3 - 0.0 - - - - - - -
18/04:30am 8.6 CALM 0 0 1005.3 - 0.0 - - - - - - -
18/04:00am 9.0 CALM 0 0 1005.3 - 0.0 - - - - - - -
18/03:30am 9.1 WSW 2 2 1005.8 - 0.0 - - - - - - -
18/03:00am 9.3 CALM 0 0 1005.7 - 0.0 - - - - - - -
18/02:30am 9.3 WSW 2 2 1006.3 - 0.0 - - - - - - -
18/02:00am 9.9 CALM 0 0 1006.4 - 0.0 - - - - - - -
18/01:30am 10.5 CALM 0 0 1006.8 - 0.0 - - - - - - -
18/01:00am 10.9 CALM 0 0 1006.8 - 0.0 - - - - - - -
18/12:30am 11.7 CALM 0 1 1007.4 - 0.0 - - - - - - -
18/12:00am 12.1 E 1 1 1007.7 - 0.0 - - - - - - -
 
Date/Time
EDT
Temp

°C
Wind Pressure Rain
since 9am
mm
Weather Cloud Vis
km
Sea
Height
m
Swell
Dir
 
Speed
knots
Gust
knots
hPa Trend Height
m
Period
s
Dir
17/11:30pm 12.6 ENE 2 3 1007.8 - 0.0 - - - - - - -
17/11:00pm 12.4 S 2 3 1008.1 - 0.0 - - - - - - -
17/10:30pm 13.0 S 3 4 1008.4 - 0.0 - - - - - - -
17/10:00pm 13.8 SE 2 3 1008.6 - 0.0 - - - - - - -
17/09:30pm 14.1 SE 3 6 1008.6 - 0.0 - - - - - - -
17/09:00pm 14.6 SE 5 8 1008.4 - 0.0 - - - - - - -
17/08:30pm 15.2 SSE 6 9 1008.5 - 0.0 - - - - - - -
17/08:00pm 15.9 SSE 9 13 1008.2 - 0.0 - - - - - - -
17/07:30pm 16.6 SSE 9 13 1008.3 - 0.0 - - - - - - -
17/07:00pm 16.8 SSE 10 14 1008.1 - 0.0 - - - - - - -
17/06:30pm 17.0 SSE 10 14 1008.2 - 0.0 - - - - - - -
17/06:00pm 17.8 SSE 9 14 1008.1 - 0.0 - - - - - - -
17/05:30pm 18.0 SSE 10 15 1008.1 - 0.0 - - - - - - -
17/05:00pm 18.0 SSE 10 15 1008.1 - 0.0 - - - - - - -
17/04:30pm 18.7 SSE 10 15 1008.3 - 0.0 - - - - - - -
17/04:00pm 18.5 SSE 11 15 1008.3 - 0.0 - - - - - - -
17/03:30pm 19.6 SSE 10 15 1008.3 - 0.0 - - - - - - -
17/03:00pm 18.4 SSE 10 15 1008.5 - 0.0 - - - - - - -
17/02:30pm 20.3 SSE 8 12 1008.5 - 0.0 - - - - - - -
17/02:00pm 18.1 S 11 15 1008.9 - 0.0 - - - - - - -
17/01:30pm 19.7 WSW 5 10 1008.8 - 0.0 - - - - - - -
17/01:00pm 18.9 SW 5 13 1009.0 - 0.0 - - - - - - -
17/12:30pm 18.8 W 7 13 1009.1 - 0.0 - - - - - - -
17/12:00pm 18.4 WNW 7 12 1009.1 - 0.0 - - - - - - -
17/11:30am 18.9 WSW 7 13 1009.0 - 0.0 - - - - - - -
17/11:00am 16.5 WSW 10 15 1009.2 - 0.0 - - - - - - -
17/10:30am 17.2 SW 10 18 1009.0 - 0.0 - - - - - - -
17/10:00am 17.0 W 9 14 1009.2 - 0.0 - - - - - - -
17/09:30am 16.4 WNW 7 11 1009.3 - 0.0 - - - - - - -
17/09:00am 15.5 WNW 7 11 1009.2 - 1.6 - - - - - - -
17/08:30am 13.9 WNW 7 10 1009.0 - 1.6 - - - - - - -
17/08:00am 12.5 NW 8 11 1008.7 - 1.6 - - - - - - -
17/07:30am 11.5 WNW 6 10 1008.4 - 1.6 - - - - - - -

Other Formats:

Comma delimited format used in spreadsheet applications
http://www.bom.gov.au/fwo/IDV60701/IDV60701.94857.axf

JavaScript Object Notation format (JSON) in row-major order
http://www.bom.gov.au/fwo/IDV60701/IDV60701.94857.json